createdAt,value
2023-05-19T00:02:20.413Z,3.40
2023-05-19T00:05:52.488Z,3.10
2023-05-19T00:09:23.584Z,2.40
2023-05-19T00:12:44.423Z,2.10
2023-05-19T00:15:36.210Z,2.20
2023-05-19T00:18:57.143Z,4.40
2023-05-19T00:22:44.916Z,2.60
2023-05-19T00:26:16.164Z,3.30
2023-05-19T00:29:32.940Z,2.70
2023-05-19T00:32:46.716Z,2.70
2023-05-19T00:36:15.502Z,4.30
2023-05-19T00:39:00.417Z,3.00
2023-05-19T00:42:09.727Z,3.20
2023-05-19T00:45:20.745Z,2.70
2023-05-19T00:48:24.859Z,2.90
2023-05-19T00:52:03.574Z,4.90
2023-05-19T00:55:02.352Z,2.70
2023-05-19T00:57:46.310Z,3.50
2023-05-19T01:01:24.858Z,3.20
2023-05-19T01:06:05.908Z,3.60
2023-05-19T01:08:37.834Z,2.90
2023-05-19T01:11:07.155Z,2.70
2023-05-19T01:13:36.341Z,4.60
2023-05-19T01:16:17.158Z,3.70
2023-05-19T01:18:56.415Z,3.60
2023-05-19T01:21:44.328Z,4.90
2023-05-19T01:24:39.291Z,3.00
2023-05-19T01:27:32.712Z,3.70
2023-05-19T01:30:30.213Z,4.80
2023-05-19T01:33:04.626Z,3.50
2023-05-19T01:35:35.242Z,5.50
2023-05-19T01:38:05.388Z,3.50
2023-05-19T01:40:36.206Z,5.60
2023-05-19T01:43:06.337Z,6.50
2023-05-19T01:45:34.400Z,7.40
2023-05-19T01:48:04.566Z,3.50
2023-05-19T01:50:33.865Z,8.30
2023-05-19T01:53:02.364Z,5.50
2023-05-19T01:55:30.129Z,7.50
2023-05-19T01:58:28.440Z,4.90
2023-05-19T02:01:26.540Z,5.20
2023-05-19T02:04:04.994Z,4.20
2023-05-19T02:06:41.338Z,6.40
2023-05-19T02:09:16.809Z,5.80
2023-05-19T02:11:55.267Z,8.70
2023-05-19T02:14:38.993Z,6.50
2023-05-19T02:17:06.816Z,6.00
2023-05-19T02:19:38.553Z,9.70
2023-05-19T02:22:06.995Z,6.40
2023-05-19T02:24:34.739Z,8.70
2023-05-19T02:27:02.639Z,7.00
2023-05-19T02:29:30.471Z,8.90
2023-05-19T02:31:58.762Z,5.40
2023-05-19T02:34:26.801Z,5.80
2023-05-19T02:36:54.620Z,5.60
2023-05-19T02:39:23.808Z,5.30
2023-05-19T02:41:51.596Z,6.00
2023-05-19T02:44:19.305Z,8.30
2023-05-19T02:46:47.273Z,7.00
2023-05-19T02:49:15.359Z,5.30
2023-05-19T02:51:43.063Z,5.20
2023-05-19T02:54:10.925Z,5.80
2023-05-19T02:56:38.677Z,4.20
2023-05-19T02:59:06.367Z,5.20
2023-05-19T03:01:34.164Z,5.50
2023-05-19T03:04:02.183Z,7.60
2023-05-19T03:06:32.429Z,7.30
2023-05-19T03:09:00.153Z,6.40
2023-05-19T03:11:27.916Z,5.50
2023-05-19T03:13:55.592Z,6.00
2023-05-19T03:16:23.456Z,7.10
2023-05-19T03:18:52.358Z,5.80
2023-05-19T03:21:20.066Z,7.70
2023-05-19T03:23:47.740Z,6.90
2023-05-19T03:26:15.915Z,6.00
2023-05-19T03:28:43.801Z,5.20
2023-05-19T03:31:11.584Z,6.20
2023-05-19T03:33:39.614Z,12.40
2023-05-19T03:36:07.793Z,6.60
2023-05-19T03:38:37.715Z,5.10
2023-05-19T03:41:05.533Z,5.00
2023-05-19T03:43:33.216Z,4.80
2023-05-19T03:46:03.890Z,3.90
2023-05-19T03:48:50.648Z,4.50
2023-05-19T03:51:24.388Z,7.30
2023-05-19T03:53:54.765Z,4.30
2023-05-19T03:56:24.200Z,5.20
2023-05-19T03:58:51.899Z,6.40
2023-05-19T04:01:19.645Z,4.40
2023-05-19T04:03:47.433Z,6.20
2023-05-19T04:06:15.338Z,4.40
2023-05-19T04:08:44.372Z,5.10
2023-05-19T04:11:13.831Z,3.70
2023-05-19T04:13:41.588Z,4.70
2023-05-19T04:16:09.460Z,6.50
2023-05-19T04:18:37.408Z,5.40
2023-05-19T04:21:05.450Z,4.70
2023-05-19T04:23:33.137Z,5.60
2023-05-19T04:26:02.045Z,9.10
2023-05-19T04:28:30.148Z,10.10
2023-05-19T04:30:58.854Z,4.20
2023-05-19T04:33:29.371Z,4.70
2023-05-19T04:35:58.389Z,4.60
2023-05-19T04:38:26.315Z,3.60
2023-05-19T04:40:54.100Z,4.40
2023-05-19T04:43:22.367Z,7.70
2023-05-19T04:45:51.517Z,5.50
2023-05-19T04:48:21.822Z,4.60
2023-05-19T04:50:51.972Z,2.90
2023-05-19T04:53:22.071Z,4.50
2023-05-19T04:56:26.715Z,6.10
2023-05-19T04:58:53.178Z,6.00
2023-05-19T05:01:25.241Z,3.70
2023-05-19T05:03:58.267Z,4.50
2023-05-19T05:06:24.862Z,3.10
2023-05-19T05:08:52.054Z,2.50
2023-05-19T05:11:18.576Z,3.70
2023-05-19T05:13:46.015Z,3.30
2023-05-19T05:16:13.660Z,4.40
2023-05-19T05:18:41.686Z,3.10
2023-05-19T05:21:11.097Z,2.70
2023-05-19T05:23:37.687Z,3.40
2023-05-19T05:26:16.693Z,2.60
2023-05-19T05:28:43.931Z,4.40
2023-05-19T05:31:10.878Z,7.30
2023-05-19T05:33:38.385Z,2.50
2023-05-19T05:36:05.416Z,6.20
2023-05-19T05:38:31.865Z,5.50
2023-05-19T05:40:58.798Z,3.90
2023-05-19T05:43:25.350Z,3.10
2023-05-19T05:45:58.446Z,5.90
2023-05-19T05:48:25.681Z,5.70
2023-05-19T05:50:53.922Z,4.50
2023-05-19T05:53:24.987Z,4.70
2023-05-19T05:55:52.955Z,5.20
2023-05-19T05:58:20.533Z,4.20
2023-05-19T06:00:48.770Z,4.00
2023-05-19T06:03:16.302Z,3.30
2023-05-19T06:05:42.816Z,3.70
2023-05-19T06:08:09.346Z,3.60
2023-05-19T06:10:38.100Z,3.80
2023-05-19T06:13:06.193Z,2.50
2023-05-19T06:15:32.612Z,3.60
2023-05-19T06:18:10.614Z,4.70
2023-05-19T06:20:36.969Z,5.00
2023-05-19T06:23:03.360Z,2.90
2023-05-19T06:25:29.870Z,2.60
2023-05-19T06:27:56.445Z,3.40
2023-05-19T06:30:23.152Z,3.30
2023-05-19T06:32:58.115Z,2.70
2023-05-19T06:35:24.861Z,4.30
2023-05-19T06:37:52.434Z,3.00
2023-05-19T06:40:20.207Z,2.50
2023-05-19T06:42:47.341Z,2.80
2023-05-19T06:45:21.038Z,4.40
2023-05-19T06:47:48.286Z,3.60
2023-05-19T06:50:16.872Z,2.70
2023-05-19T06:52:43.690Z,4.30
2023-05-19T06:55:10.128Z,5.10
2023-05-19T06:57:37.987Z,3.60
2023-05-19T07:00:06.416Z,5.70
2023-05-19T07:02:33.026Z,3.70
2023-05-19T07:05:00.075Z,3.50
2023-05-19T07:07:27.126Z,5.20
2023-05-19T07:09:55.205Z,6.60
2023-05-19T07:12:21.640Z,2.30
2023-05-19T07:14:48.165Z,3.60
2023-05-19T07:17:16.111Z,3.30
2023-05-19T07:19:43.858Z,2.80
2023-05-19T07:22:10.295Z,5.60
2023-05-19T07:24:36.679Z,3.10
2023-05-19T07:27:03.316Z,2.40
2023-05-19T07:29:29.717Z,2.20
2023-05-19T07:31:57.263Z,4.30
2023-05-19T07:34:24.373Z,9.20
2023-05-19T07:36:53.624Z,2.20
2023-05-19T07:39:20.433Z,5.30
2023-05-19T07:41:51.994Z,2.60
2023-05-19T07:44:18.435Z,2.30
2023-05-19T07:46:44.738Z,2.70
2023-05-19T07:49:11.031Z,3.10
2023-05-19T07:51:37.327Z,6.40
2023-05-19T07:54:03.646Z,4.10
2023-05-19T07:56:30.101Z,4.10
2023-05-19T07:58:56.496Z,2.80
2023-05-19T08:01:22.843Z,4.80
2023-05-19T08:03:49.213Z,5.00
2023-05-19T08:06:15.800Z,6.30
2023-05-19T08:08:42.127Z,5.10
2023-05-19T08:11:08.539Z,3.00
2023-05-19T08:13:34.933Z,2.70
2023-05-19T08:16:01.379Z,4.10
2023-05-19T08:18:28.023Z,4.60
2023-05-19T08:20:54.408Z,5.20
2023-05-19T08:23:21.184Z,3.00
2023-05-19T08:25:47.591Z,5.00
2023-05-19T08:28:13.966Z,4.50
2023-05-19T08:30:40.428Z,3.60
2023-05-19T08:33:07.763Z,5.50
2023-05-19T08:35:34.183Z,6.90
2023-05-19T08:38:00.517Z,4.90
2023-05-19T08:40:30.641Z,3.80
2023-05-19T08:42:57.133Z,3.70
2023-05-19T08:45:23.797Z,5.90
2023-05-19T08:47:50.710Z,4.90
2023-05-19T08:50:22.484Z,8.30
2023-05-19T08:53:12.744Z,3.90
2023-05-19T08:56:10.363Z,5.60
2023-05-19T08:58:39.529Z,4.30
2023-05-19T09:01:07.115Z,5.40
2023-05-19T09:03:38.613Z,6.80
2023-05-19T09:06:08.563Z,5.70
2023-05-19T09:08:36.478Z,4.40
2023-05-19T09:11:02.952Z,4.60
2023-05-19T09:13:29.296Z,6.10
2023-05-19T09:15:56.848Z,7.60
2023-05-19T09:18:27.819Z,5.90
2023-05-19T09:21:01.898Z,8.10
2023-05-19T09:23:38.458Z,7.60
2023-05-19T09:26:08.009Z,5.50
2023-05-19T09:28:36.044Z,10.20
2023-05-19T09:31:06.108Z,3.50
2023-05-19T09:34:05.632Z,9.10
2023-05-19T09:36:31.960Z,7.40
2023-05-19T09:38:58.348Z,7.80
2023-05-19T09:41:27.025Z,9.40
2023-05-19T09:43:56.583Z,10.20
2023-05-19T09:46:29.373Z,8.30
2023-05-19T09:48:58.797Z,11.90
2023-05-19T09:51:25.494Z,8.00
2023-05-19T09:53:52.868Z,6.90
2023-05-19T09:56:22.888Z,14.20
2023-05-19T09:58:49.315Z,7.70
2023-05-19T10:01:16.696Z,8.90
2023-05-19T10:03:44.271Z,10.60
2023-05-19T10:06:10.980Z,7.30
2023-05-19T10:08:39.003Z,7.60
2023-05-19T10:11:05.916Z,10.60
2023-05-19T10:13:35.099Z,7.00
2023-05-19T10:16:02.807Z,7.50
2023-05-19T10:18:30.421Z,8.10
2023-05-19T10:20:57.120Z,8.90
2023-05-19T10:23:23.518Z,7.80
2023-05-19T10:25:53.181Z,10.10
2023-05-19T10:28:24.671Z,8.10
2023-05-19T10:30:54.924Z,10.50
2023-05-19T10:33:33.293Z,6.70
2023-05-19T10:36:11.744Z,7.00
2023-05-19T10:38:49.424Z,8.60
2023-05-19T10:41:32.688Z,7.70
2023-05-19T10:44:02.595Z,8.60
2023-05-19T10:46:29.521Z,7.60
2023-05-19T10:48:56.007Z,6.70
2023-05-19T10:51:31.153Z,5.80
2023-05-19T10:53:58.208Z,12.50
2023-05-19T10:56:34.184Z,15.90
2023-05-19T10:59:01.274Z,8.00
2023-05-19T11:01:35.416Z,8.10
2023-05-19T11:04:13.193Z,9.50
2023-05-19T11:06:50.714Z,10.00
2023-05-19T11:09:19.593Z,12.50
2023-05-19T11:11:50.055Z,8.00
2023-05-19T11:14:24.872Z,11.40
2023-05-19T11:16:52.883Z,9.60
2023-05-19T11:19:30.534Z,10.40
2023-05-19T11:22:07.178Z,7.10
2023-05-19T11:24:43.884Z,5.80
2023-05-19T11:27:33.203Z,8.80
2023-05-19T11:30:10.781Z,12.80
2023-05-19T11:32:50.312Z,8.40
2023-05-19T11:35:20.151Z,14.90
2023-05-19T11:37:48.398Z,14.20
2023-05-19T11:40:15.014Z,13.70
2023-05-19T11:42:41.494Z,9.90
2023-05-19T11:45:08.505Z,8.80
2023-05-19T11:47:47.158Z,8.20
2023-05-19T11:50:21.375Z,8.60
2023-05-19T11:52:50.345Z,7.40
2023-05-19T11:55:17.831Z,19.30
2023-05-19T11:58:05.225Z,7.70
2023-05-19T12:00:38.345Z,4.90
2023-05-19T12:03:05.638Z,9.00
2023-05-19T12:05:39.111Z,6.10
2023-05-19T12:08:08.049Z,5.20
2023-05-19T12:10:35.144Z,6.60
2023-05-19T12:13:02.335Z,7.30
2023-05-19T12:15:28.705Z,6.50
2023-05-19T12:17:59.607Z,6.40
2023-05-19T12:20:27.498Z,7.40
2023-05-19T12:22:55.184Z,7.90
2023-05-19T12:25:21.878Z,6.10
2023-05-19T12:27:48.948Z,4.70
2023-05-19T12:30:16.165Z,6.80
2023-05-19T12:32:43.238Z,8.70
2023-05-19T12:35:10.032Z,7.00
2023-05-19T12:37:40.610Z,9.70
2023-05-19T12:40:08.733Z,9.50
2023-05-19T12:42:35.273Z,6.60
2023-05-19T12:45:03.916Z,5.70
2023-05-19T12:47:34.101Z,10.10
2023-05-19T12:50:07.859Z,7.50
2023-05-19T12:52:51.386Z,7.90
2023-05-19T12:55:19.809Z,7.90
2023-05-19T12:57:52.092Z,4.90
2023-05-19T13:00:20.541Z,7.20
2023-05-19T13:03:01.111Z,7.60
2023-05-19T13:05:29.239Z,5.60
2023-05-19T13:08:01.255Z,5.20
2023-05-19T13:10:28.867Z,6.30
2023-05-19T13:12:56.033Z,6.30
2023-05-19T13:15:24.056Z,6.80
2023-05-19T13:17:50.994Z,7.70
2023-05-19T13:20:18.348Z,8.10
2023-05-19T13:22:44.913Z,5.40
2023-05-19T13:25:11.273Z,8.20
2023-05-19T13:27:37.698Z,12.20
2023-05-19T13:30:07.356Z,8.50
2023-05-19T13:32:33.870Z,7.40
2023-05-19T13:35:02.563Z,10.50
2023-05-19T13:37:29.278Z,6.40
2023-05-19T13:39:57.855Z,7.50
2023-05-19T13:42:32.170Z,6.10
2023-05-19T13:45:13.165Z,5.20
2023-05-19T13:47:44.822Z,5.90
2023-05-19T13:50:15.552Z,8.20
2023-05-19T13:52:42.390Z,5.10
2023-05-19T13:55:09.005Z,7.90
2023-05-19T13:57:35.788Z,5.80
2023-05-19T14:00:04.334Z,12.50
2023-05-19T14:02:40.515Z,9.60
2023-05-19T14:05:07.413Z,8.60
2023-05-19T14:07:34.201Z,7.20
2023-05-19T14:10:07.273Z,6.70
2023-05-19T14:12:44.961Z,5.50
2023-05-19T14:15:19.373Z,6.20
2023-05-19T14:17:48.028Z,6.20
2023-05-19T14:20:14.612Z,8.50
2023-05-19T14:22:41.127Z,7.40
2023-05-19T14:25:07.885Z,6.50
2023-05-19T14:27:34.269Z,6.00
2023-05-19T14:30:00.660Z,7.90
2023-05-19T14:32:30.037Z,6.80
2023-05-19T14:34:56.813Z,4.90
2023-05-19T14:37:24.053Z,7.40
2023-05-19T14:39:50.626Z,7.00
2023-05-19T14:42:17.304Z,7.90
2023-05-19T14:44:43.667Z,5.90
2023-05-19T14:47:11.638Z,7.60
2023-05-19T14:49:38.078Z,9.30
2023-05-19T14:52:04.763Z,8.50
2023-05-19T14:54:31.037Z,7.70
2023-05-19T14:56:57.470Z,6.50
2023-05-19T14:59:36.147Z,7.00
2023-05-19T15:02:23.164Z,6.80
2023-05-19T15:04:49.760Z,6.90
2023-05-19T15:07:16.223Z,10.40
2023-05-19T15:09:42.619Z,7.00
2023-05-19T15:12:09.034Z,7.60
2023-05-19T15:14:35.493Z,6.50
2023-05-19T15:17:01.860Z,6.50
2023-05-19T15:19:28.352Z,6.00
2023-05-19T15:21:54.731Z,10.00
2023-05-19T15:24:22.482Z,8.40
2023-05-19T15:26:49.142Z,7.10
2023-05-19T15:29:17.888Z,7.20
2023-05-19T15:31:44.241Z,7.40
2023-05-19T15:34:10.604Z,7.60
2023-05-19T15:36:36.987Z,6.90
2023-05-19T15:39:03.433Z,7.90
2023-05-19T15:41:29.851Z,6.70
2023-05-19T15:43:56.312Z,7.20
2023-05-19T15:46:22.720Z,7.50
2023-05-19T15:48:49.179Z,7.80
2023-05-19T15:51:15.601Z,8.20
2023-05-19T15:53:42.063Z,6.90
2023-05-19T15:56:08.454Z,10.80
2023-05-19T15:58:34.873Z,9.30
2023-05-19T16:01:02.242Z,9.40
2023-05-19T16:03:29.461Z,7.50
2023-05-19T16:05:56.294Z,8.30
2023-05-19T16:08:22.662Z,8.00
2023-05-19T16:10:49.013Z,8.10
2023-05-19T16:13:15.352Z,10.20
2023-05-19T16:15:41.719Z,8.40
2023-05-19T16:18:08.140Z,8.30
2023-05-19T16:20:34.843Z,7.40
2023-05-19T16:23:01.354Z,11.80
2023-05-19T16:25:27.998Z,10.20
2023-05-19T16:27:54.375Z,6.70
2023-05-19T16:30:22.309Z,12.70
2023-05-19T16:32:48.710Z,8.50
2023-05-19T16:35:15.635Z,7.50
2023-05-19T16:37:42.049Z,7.20
2023-05-19T16:40:08.852Z,9.00
2023-05-19T16:42:35.185Z,11.70
2023-05-19T16:45:01.612Z,10.80
2023-05-19T16:47:29.139Z,7.10
2023-05-19T16:49:55.629Z,8.80
2023-05-19T16:52:25.020Z,9.10
2023-05-19T16:54:51.463Z,7.50
2023-05-19T16:57:17.990Z,12.00
2023-05-19T16:59:44.437Z,8.20
2023-05-19T17:02:10.975Z,7.30
2023-05-19T17:04:37.417Z,6.70
2023-05-19T17:07:05.193Z,8.90
2023-05-19T17:09:31.714Z,11.20
2023-05-19T17:11:58.149Z,13.30
2023-05-19T17:14:24.580Z,8.40
2023-05-19T17:16:53.724Z,19.70
2023-05-19T17:19:20.306Z,9.60
2023-05-19T17:21:46.666Z,8.00
2023-05-19T17:24:13.056Z,7.50
2023-05-19T17:26:39.524Z,8.90
2023-05-19T17:29:05.942Z,7.60
2023-05-19T17:31:38.709Z,7.80
2023-05-19T17:34:05.719Z,9.80
2023-05-19T17:36:32.081Z,7.40
2023-05-19T17:38:58.516Z,8.00
2023-05-19T17:41:26.114Z,8.20
2023-05-19T17:43:52.506Z,6.60
2023-05-19T17:46:30.887Z,6.80
2023-05-19T17:48:57.624Z,7.10
2023-05-19T17:51:24.310Z,11.50
2023-05-19T17:53:51.798Z,8.70
2023-05-19T17:56:21.399Z,9.40
2023-05-19T17:58:49.431Z,9.40
2023-05-19T18:01:17.851Z,8.90
2023-05-19T18:03:48.768Z,9.40
2023-05-19T18:06:17.026Z,9.30
2023-05-19T18:08:49.666Z,9.20
2023-05-19T18:11:19.240Z,7.50
2023-05-19T18:13:45.622Z,9.50
2023-05-19T18:16:12.168Z,8.70
2023-05-19T18:18:42.535Z,10.40
2023-05-19T18:21:13.516Z,9.30
2023-05-19T18:23:40.734Z,10.10
2023-05-19T18:26:07.279Z,8.60
2023-05-19T18:28:34.646Z,8.20
2023-05-19T18:31:03.489Z,9.60
2023-05-19T18:33:31.055Z,9.70
2023-05-19T18:35:58.378Z,9.30
2023-05-19T18:38:24.771Z,11.60
2023-05-19T18:40:51.396Z,10.40
2023-05-19T18:43:18.411Z,11.00
2023-05-19T18:45:47.712Z,10.50
2023-05-19T18:48:14.883Z,11.30
2023-05-19T18:50:43.359Z,11.90
2023-05-19T18:53:10.938Z,16.40
2023-05-19T18:55:38.468Z,10.00
2023-05-19T18:58:05.393Z,10.40
2023-05-19T19:00:32.302Z,10.80
2023-05-19T19:02:58.854Z,9.70
2023-05-19T19:05:25.335Z,9.50
2023-05-19T19:07:52.621Z,9.00
2023-05-19T19:10:19.156Z,17.00
2023-05-19T19:12:45.570Z,15.60
2023-05-19T19:15:12.018Z,9.40
2023-05-19T19:17:41.598Z,10.40
2023-05-19T19:20:08.816Z,11.60
2023-05-19T19:22:35.637Z,8.40
2023-05-19T19:25:03.615Z,8.50
2023-05-19T19:27:30.510Z,8.40
2023-05-19T19:29:57.919Z,13.80
2023-05-19T19:32:26.699Z,8.80
2023-05-19T19:34:53.177Z,7.50
2023-05-19T19:37:22.260Z,8.40
2023-05-19T19:39:48.666Z,9.90
2023-05-19T19:42:15.211Z,9.40
2023-05-19T19:44:41.578Z,13.10
2023-05-19T19:47:10.388Z,13.10
2023-05-19T19:49:37.165Z,8.80
2023-05-19T19:52:06.336Z,10.30
2023-05-19T19:54:32.679Z,12.30
2023-05-19T19:56:59.150Z,8.90
2023-05-19T19:59:26.819Z,14.70
2023-05-19T20:01:53.265Z,13.80
2023-05-19T20:04:19.927Z,9.00
2023-05-19T20:06:46.580Z,9.40
2023-05-19T20:09:12.929Z,9.40
2023-05-19T20:11:39.299Z,9.80
2023-05-19T20:14:05.642Z,8.40
2023-05-19T20:16:32.053Z,10.10
2023-05-19T20:18:58.564Z,10.00
2023-05-19T20:21:25.052Z,8.60
2023-05-19T20:23:51.462Z,8.80
2023-05-19T20:26:17.967Z,11.40
2023-05-19T20:28:44.405Z,10.10
2023-05-19T20:31:11.804Z,11.30
2023-05-19T20:33:38.190Z,9.40
2023-05-19T20:36:06.098Z,10.70
2023-05-19T20:38:32.495Z,10.10
2023-05-19T20:40:58.906Z,11.60
2023-05-19T20:43:25.539Z,10.00
2023-05-19T20:45:55.068Z,12.40
2023-05-19T20:48:24.098Z,14.10
2023-05-19T20:50:51.007Z,12.80
2023-05-19T20:53:18.720Z,10.40
2023-05-19T20:55:48.254Z,13.40
2023-05-19T20:58:14.729Z,12.90
2023-05-19T21:00:41.130Z,8.60
2023-05-19T21:03:08.186Z,11.80
2023-05-19T21:05:36.630Z,10.90
2023-05-19T21:08:03.195Z,9.70
2023-05-19T21:10:29.726Z,10.10
2023-05-19T21:12:58.075Z,10.50
2023-05-19T21:15:26.536Z,11.90
2023-05-19T21:17:52.940Z,10.20
2023-05-19T21:20:19.360Z,12.70
2023-05-19T21:22:45.660Z,11.40
2023-05-19T21:25:12.285Z,12.20
2023-05-19T21:27:38.837Z,10.90
2023-05-19T21:30:05.808Z,11.90
2023-05-19T21:32:32.219Z,13.90
2023-05-19T21:34:59.261Z,11.40
2023-05-19T21:37:25.697Z,14.80
2023-05-19T21:39:54.180Z,11.20
2023-05-19T21:42:20.482Z,14.80
2023-05-19T21:44:46.843Z,13.30
2023-05-19T21:47:13.221Z,12.60
2023-05-19T21:49:39.971Z,14.70
2023-05-19T21:52:07.106Z,11.30
2023-05-19T21:54:34.127Z,14.70
2023-05-19T21:57:00.509Z,11.30
2023-05-19T21:59:27.081Z,11.40
2023-05-19T22:01:53.765Z,11.80
2023-05-19T22:04:20.813Z,12.00
2023-05-19T22:06:52.449Z,12.40
2023-05-19T22:09:18.810Z,12.60
2023-05-19T22:11:45.526Z,9.20
2023-05-19T22:14:11.931Z,12.60
2023-05-19T22:16:38.372Z,16.80
2023-05-19T22:19:04.848Z,12.10
2023-05-19T22:21:31.671Z,11.90
2023-05-19T22:23:58.044Z,10.50
2023-05-19T22:26:24.431Z,10.80
2023-05-19T22:28:51.145Z,11.90
2023-05-19T22:31:17.529Z,15.80
2023-05-19T22:33:44.196Z,12.50
2023-05-19T22:36:10.655Z,12.70
2023-05-19T22:38:37.214Z,10.50
2023-05-19T22:41:03.583Z,10.80
2023-05-19T22:43:30.066Z,16.50
2023-05-19T22:45:56.525Z,10.70
2023-05-19T22:48:23.461Z,16.70
2023-05-19T22:50:52.456Z,10.70
2023-05-19T22:53:18.896Z,10.80
2023-05-19T22:55:45.430Z,13.10
2023-05-19T22:58:11.761Z,13.80
2023-05-19T23:00:38.099Z,11.90
2023-05-19T23:03:04.510Z,14.30
2023-05-19T23:05:33.874Z,13.20
2023-05-19T23:08:00.365Z,9.80
2023-05-19T23:10:26.747Z,12.10
2023-05-19T23:12:53.132Z,10.90
2023-05-19T23:15:19.647Z,13.50
2023-05-19T23:17:45.938Z,9.20
2023-05-19T23:20:12.951Z,10.50
2023-05-19T23:22:39.288Z,9.80
2023-05-19T23:25:07.007Z,10.20
2023-05-19T23:27:34.893Z,11.50
2023-05-19T23:30:01.817Z,10.40
2023-05-19T23:32:28.404Z,11.80
2023-05-19T23:34:54.862Z,12.50
2023-05-19T23:37:21.259Z,11.90
2023-05-19T23:39:47.604Z,11.40
2023-05-19T23:42:13.925Z,10.80
2023-05-19T23:44:40.465Z,11.20
2023-05-19T23:47:06.914Z,11.80
2023-05-19T23:49:33.373Z,10.50
2023-05-19T23:51:59.805Z,9.20
2023-05-19T23:54:26.194Z,10.30
2023-05-19T23:56:53.825Z,9.40
2023-05-19T23:59:20.155Z,8.90
